sensor_id;sensor_type;location;lat;lon;timestamp;P1;durP1;ratioP1;P2;durP2;ratioP2
71715;SDS011;59568;52.128;5.434;2022-07-23T00:00:19;1.80;;;0.80;;
71715;SDS011;59568;52.128;5.434;2022-07-23T00:02:46;3.30;;;0.68;;
71715;SDS011;59568;52.128;5.434;2022-07-23T00:05:13;1.73;;;0.70;;
71715;SDS011;59568;52.128;5.434;2022-07-23T00:07:40;1.52;;;0.63;;
71715;SDS011;59568;52.128;5.434;2022-07-23T00:10:07;2.47;;;0.70;;
71715;SDS011;59568;52.128;5.434;2022-07-23T00:12:34;3.58;;;1.08;;
71715;SDS011;59568;52.128;5.434;2022-07-23T00:15:02;1.63;;;1.00;;
71715;SDS011;59568;52.128;5.434;2022-07-23T00:17:30;1.87;;;0.90;;
71715;SDS011;59568;52.128;5.434;2022-07-23T00:19:57;1.40;;;0.63;;
71715;SDS011;59568;52.128;5.434;2022-07-23T00:22:24;3.50;;;1.10;;
71715;SDS011;59568;52.128;5.434;2022-07-23T00:24:51;2.45;;;1.48;;
71715;SDS011;59568;52.128;5.434;2022-07-23T00:27:38;1.55;;;0.93;;
71715;SDS011;59568;52.128;5.434;2022-07-23T00:30:04;3.45;;;1.00;;
71715;SDS011;59568;52.128;5.434;2022-07-23T00:32:32;2.05;;;1.10;;
71715;SDS011;59568;52.128;5.434;2022-07-23T00:35:19;3.55;;;1.30;;
71715;SDS011;59568;52.128;5.434;2022-07-23T00:37:47;2.53;;;1.60;;
71715;SDS011;59568;52.128;5.434;2022-07-23T00:40:14;2.67;;;1.23;;
71715;SDS011;59568;52.128;5.434;2022-07-23T00:42:41;3.13;;;1.67;;
71715;SDS011;59568;52.128;5.434;2022-07-23T00:45:08;2.00;;;1.02;;
71715;SDS011;59568;52.128;5.434;2022-07-23T00:47:36;2.83;;;0.95;;
71715;SDS011;59568;52.128;5.434;2022-07-23T00:50:03;3.40;;;1.42;;
71715;SDS011;59568;52.128;5.434;2022-07-23T00:52:31;3.33;;;1.60;;
71715;SDS011;59568;52.128;5.434;2022-07-23T00:54:59;3.67;;;1.30;;
71715;SDS011;59568;52.128;5.434;2022-07-23T00:57:26;3.00;;;1.30;;
71715;SDS011;59568;52.128;5.434;2022-07-23T00:59:54;3.85;;;1.77;;
71715;SDS011;59568;52.128;5.434;2022-07-23T01:02:21;3.55;;;1.30;;
71715;SDS011;59568;52.128;5.434;2022-07-23T01:04:48;3.28;;;1.50;;
71715;SDS011;59568;52.128;5.434;2022-07-23T01:07:15;3.20;;;1.37;;
71715;SDS011;59568;52.128;5.434;2022-07-23T01:09:43;3.97;;;1.50;;
71715;SDS011;59568;52.128;5.434;2022-07-23T01:12:11;3.72;;;1.58;;
71715;SDS011;59568;52.128;5.434;2022-07-23T01:14:38;3.72;;;1.70;;
71715;SDS011;59568;52.128;5.434;2022-07-23T01:17:05;3.70;;;1.63;;
71715;SDS011;59568;52.128;5.434;2022-07-23T01:19:31;3.28;;;1.85;;
71715;SDS011;59568;52.128;5.434;2022-07-23T01:21:58;5.07;;;1.65;;
71715;SDS011;59568;52.128;5.434;2022-07-23T01:24:28;3.03;;;1.60;;
71715;SDS011;59568;52.128;5.434;2022-07-23T01:26:55;4.18;;;1.50;;
71715;SDS011;59568;52.128;5.434;2022-07-23T01:29:22;2.33;;;1.40;;
71715;SDS011;59568;52.128;5.434;2022-07-23T01:31:49;2.20;;;1.30;;
71715;SDS011;59568;52.128;5.434;2022-07-23T01:34:16;2.50;;;1.60;;
71715;SDS011;59568;52.128;5.434;2022-07-23T01:36:42;2.88;;;2.00;;
71715;SDS011;59568;52.128;5.434;2022-07-23T01:39:09;4.18;;;2.58;;
71715;SDS011;59568;52.128;5.434;2022-07-23T01:41:36;3.80;;;1.55;;
71715;SDS011;59568;52.128;5.434;2022-07-23T01:44:05;4.00;;;2.13;;
71715;SDS011;59568;52.128;5.434;2022-07-23T01:46:31;2.97;;;1.67;;
71715;SDS011;59568;52.128;5.434;2022-07-23T01:48:58;4.55;;;1.50;;
71715;SDS011;59568;52.128;5.434;2022-07-23T01:51:26;3.22;;;1.48;;
71715;SDS011;59568;52.128;5.434;2022-07-23T01:53:52;4.78;;;1.88;;
71715;SDS011;59568;52.128;5.434;2022-07-23T01:56:19;4.60;;;2.07;;
71715;SDS011;59568;52.128;5.434;2022-07-23T01:58:47;4.15;;;1.50;;
71715;SDS011;59568;52.128;5.434;2022-07-23T02:01:15;2.97;;;1.75;;
71715;SDS011;59568;52.128;5.434;2022-07-23T02:03:42;2.60;;;1.50;;
71715;SDS011;59568;52.128;5.434;2022-07-23T02:06:08;2.47;;;1.67;;
71715;SDS011;59568;52.128;5.434;2022-07-23T02:08:35;2.33;;;1.50;;
71715;SDS011;59568;52.128;5.434;2022-07-23T02:11:02;2.30;;;1.33;;
71715;SDS011;59568;52.128;5.434;2022-07-23T02:13:29;3.58;;;1.80;;
71715;SDS011;59568;52.128;5.434;2022-07-23T02:15:59;2.50;;;1.40;;
71715;SDS011;59568;52.128;5.434;2022-07-23T02:18:26;2.75;;;1.40;;
71715;SDS011;59568;52.128;5.434;2022-07-23T02:20:53;5.20;;;1.70;;
71715;SDS011;59568;52.128;5.434;2022-07-23T02:23:20;2.67;;;1.40;;
71715;SDS011;59568;52.128;5.434;2022-07-23T02:25:46;2.92;;;1.70;;
71715;SDS011;59568;52.128;5.434;2022-07-23T02:28:14;3.70;;;1.67;;
71715;SDS011;59568;52.128;5.434;2022-07-23T02:30:41;2.42;;;1.67;;
71715;SDS011;59568;52.128;5.434;2022-07-23T02:33:08;2.13;;;1.37;;
71715;SDS011;59568;52.128;5.434;2022-07-23T02:35:35;1.83;;;1.20;;
71715;SDS011;59568;52.128;5.434;2022-07-23T02:38:02;2.92;;;1.48;;
71715;SDS011;59568;52.128;5.434;2022-07-23T02:40:28;2.78;;;1.20;;
71715;SDS011;59568;52.128;5.434;2022-07-23T02:42:55;3.55;;;1.60;;
71715;SDS011;59568;52.128;5.434;2022-07-23T02:45:22;3.97;;;1.63;;
71715;SDS011;59568;52.128;5.434;2022-07-23T02:47:49;3.45;;;1.17;;
71715;SDS011;59568;52.128;5.434;2022-07-23T02:50:15;2.67;;;1.52;;
71715;SDS011;59568;52.128;5.434;2022-07-23T02:52:43;2.15;;;1.20;;
71715;SDS011;59568;52.128;5.434;2022-07-23T02:55:10;2.70;;;1.30;;
71715;SDS011;59568;52.128;5.434;2022-07-23T02:57:37;2.08;;;1.10;;
71715;SDS011;59568;52.128;5.434;2022-07-23T03:00:04;2.35;;;1.20;;
71715;SDS011;59568;52.128;5.434;2022-07-23T03:02:32;2.53;;;1.20;;
71715;SDS011;59568;52.128;5.434;2022-07-23T03:04:59;3.92;;;1.30;;
71715;SDS011;59568;52.128;5.434;2022-07-23T03:07:26;1.85;;;1.02;;
71715;SDS011;59568;52.128;5.434;2022-07-23T03:09:52;2.42;;;1.40;;
71715;SDS011;59568;52.128;5.434;2022-07-23T03:12:19;2.75;;;1.30;;
71715;SDS011;59568;52.128;5.434;2022-07-23T03:14:46;3.60;;;1.30;;
71715;SDS011;59568;52.128;5.434;2022-07-23T03:17:13;3.05;;;1.20;;
71715;SDS011;59568;52.128;5.434;2022-07-23T03:19:40;3.00;;;1.15;;
71715;SDS011;59568;52.128;5.434;2022-07-23T03:22:06;1.60;;;1.00;;
71715;SDS011;59568;52.128;5.434;2022-07-23T03:24:33;3.13;;;1.27;;
71715;SDS011;59568;52.128;5.434;2022-07-23T03:27:19;3.05;;;1.15;;
71715;SDS011;59568;52.128;5.434;2022-07-23T03:29:46;2.00;;;1.00;;
71715;SDS011;59568;52.128;5.434;2022-07-23T03:32:13;2.38;;;1.05;;
71715;SDS011;59568;52.128;5.434;2022-07-23T03:34:40;1.90;;;0.90;;
71715;SDS011;59568;52.128;5.434;2022-07-23T03:37:08;1.63;;;0.98;;
71715;SDS011;59568;52.128;5.434;2022-07-23T03:39:34;2.65;;;1.10;;
71715;SDS011;59568;52.128;5.434;2022-07-23T03:42:01;3.03;;;1.02;;
71715;SDS011;59568;52.128;5.434;2022-07-23T03:44:28;2.88;;;1.42;;
71715;SDS011;59568;52.128;5.434;2022-07-23T03:46:55;1.65;;;1.00;;
71715;SDS011;59568;52.128;5.434;2022-07-23T03:49:22;1.88;;;1.20;;
71715;SDS011;59568;52.128;5.434;2022-07-23T03:51:48;1.63;;;0.93;;
71715;SDS011;59568;52.128;5.434;2022-07-23T03:54:15;2.28;;;1.20;;
71715;SDS011;59568;52.128;5.434;2022-07-23T03:56:42;1.90;;;1.00;;
71715;SDS011;59568;52.128;5.434;2022-07-23T03:59:09;2.65;;;0.85;;
71715;SDS011;59568;52.128;5.434;2022-07-23T04:01:36;1.70;;;0.85;;
71715;SDS011;59568;52.128;5.434;2022-07-23T04:04:03;2.17;;;1.13;;
71715;SDS011;59568;52.128;5.434;2022-07-23T04:06:30;2.28;;;0.80;;
71715;SDS011;59568;52.128;5.434;2022-07-23T04:08:57;2.78;;;0.90;;
71715;SDS011;59568;52.128;5.434;2022-07-23T04:11:24;1.93;;;1.00;;
71715;SDS011;59568;52.128;5.434;2022-07-23T04:13:51;2.33;;;1.40;;
71715;SDS011;59568;52.128;5.434;2022-07-23T04:16:18;2.15;;;1.00;;
71715;SDS011;59568;52.128;5.434;2022-07-23T04:18:45;2.30;;;1.27;;
71715;SDS011;59568;52.128;5.434;2022-07-23T04:21:11;1.85;;;1.08;;
71715;SDS011;59568;52.128;5.434;2022-07-23T04:23:38;2.07;;;1.20;;
71715;SDS011;59568;52.128;5.434;2022-07-23T04:26:05;2.53;;;1.10;;
71715;SDS011;59568;52.128;5.434;2022-07-23T04:28:32;2.22;;;1.23;;
71715;SDS011;59568;52.128;5.434;2022-07-23T04:30:58;2.67;;;1.17;;
71715;SDS011;59568;52.128;5.434;2022-07-23T04:33:26;3.15;;;1.20;;
71715;SDS011;59568;52.128;5.434;2022-07-23T04:35:52;2.07;;;0.93;;
71715;SDS011;59568;52.128;5.434;2022-07-23T04:38:19;2.63;;;1.15;;
71715;SDS011;59568;52.128;5.434;2022-07-23T04:40:46;1.88;;;1.00;;
71715;SDS011;59568;52.128;5.434;2022-07-23T04:43:13;2.42;;;1.10;;
71715;SDS011;59568;52.128;5.434;2022-07-23T04:45:39;2.28;;;1.00;;
71715;SDS011;59568;52.128;5.434;2022-07-23T04:48:09;1.90;;;1.00;;
71715;SDS011;59568;52.128;5.434;2022-07-23T04:50:35;2.58;;;1.00;;
71715;SDS011;59568;52.128;5.434;2022-07-23T04:53:02;2.28;;;1.27;;
71715;SDS011;59568;52.128;5.434;2022-07-23T04:55:29;2.80;;;1.23;;
71715;SDS011;59568;52.128;5.434;2022-07-23T04:57:56;3.25;;;1.40;;
71715;SDS011;59568;52.128;5.434;2022-07-23T05:00:22;1.67;;;0.87;;
71715;SDS011;59568;52.128;5.434;2022-07-23T05:02:49;3.53;;;1.33;;
71715;SDS011;59568;52.128;5.434;2022-07-23T05:05:16;2.53;;;1.23;;
71715;SDS011;59568;52.128;5.434;2022-07-23T05:07:43;3.03;;;1.55;;
71715;SDS011;59568;52.128;5.434;2022-07-23T05:10:10;2.40;;;1.55;;
71715;SDS011;59568;52.128;5.434;2022-07-23T05:12:36;2.00;;;1.30;;
71715;SDS011;59568;52.128;5.434;2022-07-23T05:15:03;2.53;;;1.17;;
71715;SDS011;59568;52.128;5.434;2022-07-23T05:17:30;1.70;;;1.05;;
71715;SDS011;59568;52.128;5.434;2022-07-23T05:19:57;2.00;;;1.00;;
71715;SDS011;59568;52.128;5.434;2022-07-23T05:22:26;3.47;;;1.42;;
71715;SDS011;59568;52.128;5.434;2022-07-23T05:24:53;2.08;;;1.25;;
71715;SDS011;59568;52.128;5.434;2022-07-23T05:27:20;1.55;;;1.30;;
71715;SDS011;59568;52.128;5.434;2022-07-23T05:29:47;2.65;;;1.17;;
71715;SDS011;59568;52.128;5.434;2022-07-23T05:32:14;2.83;;;1.15;;
71715;SDS011;59568;52.128;5.434;2022-07-23T05:34:40;2.08;;;1.05;;
71715;SDS011;59568;52.128;5.434;2022-07-23T05:37:07;2.20;;;1.17;;
71715;SDS011;59568;52.128;5.434;2022-07-23T05:39:34;2.75;;;1.40;;
71715;SDS011;59568;52.128;5.434;2022-07-23T05:42:00;2.70;;;1.90;;
71715;SDS011;59568;52.128;5.434;2022-07-23T05:44:27;4.70;;;2.10;;
71715;SDS011;59568;52.128;5.434;2022-07-23T05:46:59;2.97;;;1.45;;
71715;SDS011;59568;52.128;5.434;2022-07-23T05:49:27;2.47;;;1.25;;
71715;SDS011;59568;52.128;5.434;2022-07-23T05:51:53;2.85;;;1.83;;
71715;SDS011;59568;52.128;5.434;2022-07-23T05:54:20;2.75;;;1.48;;
71715;SDS011;59568;52.128;5.434;2022-07-23T05:56:47;3.47;;;1.40;;
71715;SDS011;59568;52.128;5.434;2022-07-23T05:59:14;2.85;;;1.50;;
71715;SDS011;59568;52.128;5.434;2022-07-23T06:01:41;3.03;;;1.77;;
71715;SDS011;59568;52.128;5.434;2022-07-23T06:04:08;6.47;;;1.60;;
71715;SDS011;59568;52.128;5.434;2022-07-23T06:06:35;3.70;;;2.30;;
71715;SDS011;59568;52.128;5.434;2022-07-23T06:09:02;3.97;;;1.48;;
71715;SDS011;59568;52.128;5.434;2022-07-23T06:11:30;2.80;;;1.30;;
71715;SDS011;59568;52.128;5.434;2022-07-23T06:13:57;2.67;;;1.13;;
71715;SDS011;59568;52.128;5.434;2022-07-23T06:16:24;6.00;;;1.90;;
71715;SDS011;59568;52.128;5.434;2022-07-23T06:18:50;2.35;;;1.27;;
71715;SDS011;59568;52.128;5.434;2022-07-23T06:21:17;3.47;;;1.10;;
71715;SDS011;59568;52.128;5.434;2022-07-23T06:24:04;2.40;;;1.00;;
71715;SDS011;59568;52.128;5.434;2022-07-23T06:26:30;2.78;;;1.15;;
71715;SDS011;59568;52.128;5.434;2022-07-23T06:28:57;2.47;;;0.90;;
71715;SDS011;59568;52.128;5.434;2022-07-23T06:31:24;2.03;;;0.70;;
71715;SDS011;59568;52.128;5.434;2022-07-23T06:33:51;3.13;;;0.93;;
71715;SDS011;59568;52.128;5.434;2022-07-23T06:36:18;2.45;;;1.17;;
71715;SDS011;59568;52.128;5.434;2022-07-23T06:38:45;2.78;;;1.00;;
71715;SDS011;59568;52.128;5.434;2022-07-23T06:41:14;4.53;;;1.27;;
71715;SDS011;59568;52.128;5.434;2022-07-23T06:43:40;3.15;;;1.02;;
71715;SDS011;59568;52.128;5.434;2022-07-23T06:46:07;2.42;;;0.60;;
71715;SDS011;59568;52.128;5.434;2022-07-23T06:48:34;2.75;;;0.75;;
71715;SDS011;59568;52.128;5.434;2022-07-23T06:51:02;2.45;;;0.80;;
71715;SDS011;59568;52.128;5.434;2022-07-23T06:53:29;2.10;;;0.80;;
71715;SDS011;59568;52.128;5.434;2022-07-23T06:55:56;3.35;;;0.93;;
71715;SDS011;59568;52.128;5.434;2022-07-23T06:58:23;1.85;;;0.73;;
71715;SDS011;59568;52.128;5.434;2022-07-23T07:00:49;1.45;;;0.70;;
71715;SDS011;59568;52.128;5.434;2022-07-23T07:03:16;1.27;;;0.60;;
71715;SDS011;59568;52.128;5.434;2022-07-23T07:05:44;1.37;;;0.70;;
71715;SDS011;59568;52.128;5.434;2022-07-23T07:08:11;2.47;;;0.73;;
71715;SDS011;59568;52.128;5.434;2022-07-23T07:10:38;2.78;;;0.93;;
71715;SDS011;59568;52.128;5.434;2022-07-23T07:13:05;1.98;;;0.55;;
71715;SDS011;59568;52.128;5.434;2022-07-23T07:15:32;2.30;;;0.60;;
71715;SDS011;59568;52.128;5.434;2022-07-23T07:17:58;3.73;;;1.23;;
71715;SDS011;59568;52.128;5.434;2022-07-23T07:20:25;2.70;;;0.60;;
71715;SDS011;59568;52.128;5.434;2022-07-23T07:22:52;2.10;;;0.82;;
71715;SDS011;59568;52.128;5.434;2022-07-23T07:25:18;3.90;;;1.05;;
71715;SDS011;59568;52.128;5.434;2022-07-23T07:27:45;2.05;;;0.57;;
71715;SDS011;59568;52.128;5.434;2022-07-23T07:30:12;1.73;;;0.50;;
71715;SDS011;59568;52.128;5.434;2022-07-23T07:32:39;1.20;;;0.50;;
71715;SDS011;59568;52.128;5.434;2022-07-23T07:35:23;1.33;;;0.50;;
71715;SDS011;59568;52.128;5.434;2022-07-23T07:37:50;2.08;;;0.80;;
71715;SDS011;59568;52.128;5.434;2022-07-23T07:40:17;1.17;;;0.70;;
71715;SDS011;59568;52.128;5.434;2022-07-23T07:42:48;2.50;;;0.80;;
71715;SDS011;59568;52.128;5.434;2022-07-23T07:45:20;2.65;;;0.60;;
71715;SDS011;59568;52.128;5.434;2022-07-23T07:47:48;2.47;;;0.77;;
71715;SDS011;59568;52.128;5.434;2022-07-23T07:50:14;3.13;;;1.00;;
71715;SDS011;59568;52.128;5.434;2022-07-23T07:52:41;3.70;;;1.15;;
71715;SDS011;59568;52.128;5.434;2022-07-23T07:55:09;2.60;;;0.80;;
71715;SDS011;59568;52.128;5.434;2022-07-23T07:57:36;2.05;;;0.80;;
71715;SDS011;59568;52.128;5.434;2022-07-23T08:00:04;1.63;;;0.70;;
71715;SDS011;59568;52.128;5.434;2022-07-23T08:02:43;1.83;;;0.88;;
71715;SDS011;59568;52.128;5.434;2022-07-23T08:05:18;1.77;;;0.60;;
71715;SDS011;59568;52.128;5.434;2022-07-23T08:07:53;1.27;;;0.63;;
71715;SDS011;59568;52.128;5.434;2022-07-23T08:10:21;4.72;;;0.68;;
71715;SDS011;59568;52.128;5.434;2022-07-23T08:12:49;1.65;;;0.70;;
71715;SDS011;59568;52.128;5.434;2022-07-23T08:15:18;2.20;;;0.80;;
71715;SDS011;59568;52.128;5.434;2022-07-23T08:17:46;2.15;;;0.60;;
71715;SDS011;59568;52.128;5.434;2022-07-23T08:20:15;2.10;;;0.77;;
71715;SDS011;59568;52.128;5.434;2022-07-23T08:25:27;2.00;;;0.75;;
71715;SDS011;59568;52.128;5.434;2022-07-23T08:28:13;3.50;;;0.90;;
71715;SDS011;59568;52.128;5.434;2022-07-23T08:30:41;2.28;;;0.52;;
71715;SDS011;59568;52.128;5.434;2022-07-23T08:33:10;1.93;;;0.80;;
71715;SDS011;59568;52.128;5.434;2022-07-23T08:35:58;1.85;;;0.80;;
71715;SDS011;59568;52.128;5.434;2022-07-23T08:38:26;2.42;;;0.60;;
71715;SDS011;59568;52.128;5.434;2022-07-23T08:40:54;1.92;;;0.70;;
71715;SDS011;59568;52.128;5.434;2022-07-23T08:43:25;3.58;;;0.95;;
71715;SDS011;59568;52.128;5.434;2022-07-23T08:45:58;2.13;;;0.60;;
71715;SDS011;59568;52.128;5.434;2022-07-23T08:48:27;1.63;;;0.50;;
71715;SDS011;59568;52.128;5.434;2022-07-23T08:50:56;2.45;;;0.32;;
71715;SDS011;59568;52.128;5.434;2022-07-23T08:53:27;1.33;;;0.40;;
71715;SDS011;59568;52.128;5.434;2022-07-23T08:55:55;3.28;;;0.50;;
71715;SDS011;59568;52.128;5.434;2022-07-23T08:58:30;0.70;;;0.30;;
71715;SDS011;59568;52.128;5.434;2022-07-23T09:00:57;3.00;;;0.50;;
71715;SDS011;59568;52.128;5.434;2022-07-23T09:03:26;2.75;;;0.80;;
71715;SDS011;59568;52.128;5.434;2022-07-23T09:05:53;1.92;;;0.60;;
71715;SDS011;59568;52.128;5.434;2022-07-23T09:08:26;2.83;;;0.40;;
71715;SDS011;59568;52.128;5.434;2022-07-23T09:11:03;1.40;;;0.40;;
71715;SDS011;59568;52.128;5.434;2022-07-23T09:16:17;3.47;;;0.60;;
71715;SDS011;59568;52.128;5.434;2022-07-23T09:21:39;4.55;;;0.60;;
71715;SDS011;59568;52.128;5.434;2022-07-23T09:24:07;1.40;;;0.50;;
71715;SDS011;59568;52.128;5.434;2022-07-23T09:29:54;2.60;;;0.50;;
71715;SDS011;59568;52.128;5.434;2022-07-23T09:32:03;1.23;;;0.40;;
71715;SDS011;59568;52.128;5.434;2022-07-23T09:34:36;2.55;;;0.52;;
71715;SDS011;59568;52.128;5.434;2022-07-23T09:39:37;1.75;;;0.47;;
71715;SDS011;59568;52.128;5.434;2022-07-23T09:42:21;1.75;;;0.35;;
71715;SDS011;59568;52.128;5.434;2022-07-23T09:44:51;3.28;;;0.70;;
71715;SDS011;59568;52.128;5.434;2022-07-23T09:47:19;2.55;;;0.68;;
71715;SDS011;59568;52.128;5.434;2022-07-23T09:52:52;1.42;;;0.82;;
71715;SDS011;59568;52.128;5.434;2022-07-23T09:55:19;2.97;;;0.60;;
71715;SDS011;59568;52.128;5.434;2022-07-23T09:57:46;1.73;;;0.63;;
71715;SDS011;59568;52.128;5.434;2022-07-23T10:00:21;1.67;;;0.40;;
71715;SDS011;59568;52.128;5.434;2022-07-23T10:02:49;1.40;;;0.50;;
71715;SDS011;59568;52.128;5.434;2022-07-23T10:05:17;1.90;;;0.50;;
71715;SDS011;59568;52.128;5.434;2022-07-23T10:07:46;1.33;;;0.43;;
71715;SDS011;59568;52.128;5.434;2022-07-23T10:10:18;2.35;;;0.55;;
71715;SDS011;59568;52.128;5.434;2022-07-23T10:12:48;2.28;;;0.40;;
71715;SDS011;59568;52.128;5.434;2022-07-23T10:15:17;2.97;;;0.67;;
71715;SDS011;59568;52.128;5.434;2022-07-23T10:17:44;1.80;;;0.40;;
71715;SDS011;59568;52.128;5.434;2022-07-23T10:20:11;0.88;;;0.30;;
71715;SDS011;59568;52.128;5.434;2022-07-23T10:22:42;1.27;;;0.40;;
71715;SDS011;59568;52.128;5.434;2022-07-23T10:28:15;1.63;;;0.37;;
71715;SDS011;59568;52.128;5.434;2022-07-23T10:39:15;1.40;;;0.43;;
71715;SDS011;59568;52.128;5.434;2022-07-23T10:41:50;2.83;;;0.33;;
71715;SDS011;59568;52.128;5.434;2022-07-23T10:44:17;2.42;;;0.55;;
71715;SDS011;59568;52.128;5.434;2022-07-23T10:58:03;1.40;;;0.60;;
71715;SDS011;59568;52.128;5.434;2022-07-23T11:00:31;1.10;;;0.40;;
71715;SDS011;59568;52.128;5.434;2022-07-23T11:03:00;1.10;;;0.50;;
71715;SDS011;59568;52.128;5.434;2022-07-23T11:05:41;2.10;;;0.45;;
71715;SDS011;59568;52.128;5.434;2022-07-23T11:08:11;3.17;;;0.70;;
71715;SDS011;59568;52.128;5.434;2022-07-23T11:13:46;1.55;;;0.30;;
71715;SDS011;59568;52.128;5.434;2022-07-23T11:16:15;3.10;;;0.40;;
71715;SDS011;59568;52.128;5.434;2022-07-23T11:18:56;1.77;;;0.60;;
71715;SDS011;59568;52.128;5.434;2022-07-23T11:24:05;1.88;;;0.60;;
71715;SDS011;59568;52.128;5.434;2022-07-23T11:26:55;2.78;;;0.65;;
71715;SDS011;59568;52.128;5.434;2022-07-23T11:32:03;1.42;;;0.45;;
71715;SDS011;59568;52.128;5.434;2022-07-23T11:34:49;1.77;;;0.50;;
71715;SDS011;59568;52.128;5.434;2022-07-23T11:37:29;2.03;;;0.70;;
71715;SDS011;59568;52.128;5.434;2022-07-23T11:40:00;1.88;;;0.57;;
71715;SDS011;59568;52.128;5.434;2022-07-23T11:42:28;1.35;;;0.47;;
71715;SDS011;59568;52.128;5.434;2022-07-23T11:44:57;1.63;;;0.63;;
71715;SDS011;59568;52.128;5.434;2022-07-23T11:47:24;2.40;;;0.77;;
71715;SDS011;59568;52.128;5.434;2022-07-23T11:49:59;2.10;;;0.60;;
71715;SDS011;59568;52.128;5.434;2022-07-23T11:52:28;5.30;;;0.65;;
71715;SDS011;59568;52.128;5.434;2022-07-23T11:54:57;2.60;;;0.63;;
71715;SDS011;59568;52.128;5.434;2022-07-23T11:57:26;1.05;;;0.40;;
71715;SDS011;59568;52.128;5.434;2022-07-23T11:59:56;1.90;;;0.50;;
71715;SDS011;59568;52.128;5.434;2022-07-23T12:02:24;1.30;;;0.70;;
71715;SDS011;59568;52.128;5.434;2022-07-23T12:04:52;2.05;;;0.50;;
71715;SDS011;59568;52.128;5.434;2022-07-23T12:07:36;2.13;;;0.85;;
71715;SDS011;59568;52.128;5.434;2022-07-23T12:12:43;1.30;;;0.70;;
71715;SDS011;59568;52.128;5.434;2022-07-23T12:15:13;1.42;;;0.45;;
71715;SDS011;59568;52.128;5.434;2022-07-23T12:17:42;2.55;;;0.40;;
71715;SDS011;59568;52.128;5.434;2022-07-23T12:20:17;1.77;;;0.65;;
71715;SDS011;59568;52.128;5.434;2022-07-23T12:22:49;2.35;;;0.77;;
71715;SDS011;59568;52.128;5.434;2022-07-23T12:25:19;2.40;;;0.70;;
71715;SDS011;59568;52.128;5.434;2022-07-23T12:27:57;1.90;;;0.60;;
71715;SDS011;59568;52.128;5.434;2022-07-23T12:30:34;2.75;;;0.80;;
71715;SDS011;59568;52.128;5.434;2022-07-23T12:33:06;1.38;;;0.68;;
71715;SDS011;59568;52.128;5.434;2022-07-23T12:35:36;1.05;;;0.40;;
71715;SDS011;59568;52.128;5.434;2022-07-23T12:38:05;4.57;;;1.10;;
71715;SDS011;59568;52.128;5.434;2022-07-23T12:40:34;4.15;;;0.70;;
71715;SDS011;59568;52.128;5.434;2022-07-23T12:45:42;2.42;;;0.52;;
71715;SDS011;59568;52.128;5.434;2022-07-23T12:48:15;1.70;;;0.47;;
71715;SDS011;59568;52.128;5.434;2022-07-23T12:51:09;2.37;;;0.70;;
71715;SDS011;59568;52.128;5.434;2022-07-23T12:53:48;3.00;;;0.88;;
71715;SDS011;59568;52.128;5.434;2022-07-23T12:56:30;2.50;;;0.80;;
71715;SDS011;59568;52.128;5.434;2022-07-23T12:58:59;2.13;;;0.60;;
71715;SDS011;59568;52.128;5.434;2022-07-23T13:01:38;2.03;;;0.90;;
71715;SDS011;59568;52.128;5.434;2022-07-23T13:04:21;1.70;;;0.70;;
71715;SDS011;59568;52.128;5.434;2022-07-23T13:06:52;4.05;;;0.80;;
71715;SDS011;59568;52.128;5.434;2022-07-23T13:09:27;3.15;;;0.65;;
71715;SDS011;59568;52.128;5.434;2022-07-23T13:11:59;1.67;;;0.70;;
71715;SDS011;59568;52.128;5.434;2022-07-23T13:14:27;2.67;;;0.60;;
71715;SDS011;59568;52.128;5.434;2022-07-23T13:16:54;1.47;;;0.60;;
71715;SDS011;59568;52.128;5.434;2022-07-23T13:19:24;2.20;;;0.60;;
71715;SDS011;59568;52.128;5.434;2022-07-23T13:21:53;1.05;;;0.50;;
71715;SDS011;59568;52.128;5.434;2022-07-23T13:24:20;1.52;;;0.80;;
71715;SDS011;59568;52.128;5.434;2022-07-23T13:26:47;1.58;;;0.57;;
71715;SDS011;59568;52.128;5.434;2022-07-23T13:29:16;3.03;;;0.60;;
71715;SDS011;59568;52.128;5.434;2022-07-23T13:31:45;1.27;;;0.70;;
71715;SDS011;59568;52.128;5.434;2022-07-23T13:34:13;1.83;;;0.65;;
71715;SDS011;59568;52.128;5.434;2022-07-23T13:36:39;1.77;;;0.60;;
71715;SDS011;59568;52.128;5.434;2022-07-23T13:39:06;1.85;;;0.60;;
71715;SDS011;59568;52.128;5.434;2022-07-23T13:41:35;1.70;;;0.50;;
71715;SDS011;59568;52.128;5.434;2022-07-23T13:44:03;1.75;;;0.65;;
71715;SDS011;59568;52.128;5.434;2022-07-23T13:46:30;1.38;;;0.80;;
71715;SDS011;59568;52.128;5.434;2022-07-23T13:48:57;2.10;;;0.50;;
71715;SDS011;59568;52.128;5.434;2022-07-23T13:51:25;1.63;;;0.50;;
71715;SDS011;59568;52.128;5.434;2022-07-23T13:53:54;2.13;;;0.77;;
71715;SDS011;59568;52.128;5.434;2022-07-23T13:56:21;1.88;;;0.80;;
71715;SDS011;59568;52.128;5.434;2022-07-23T13:58:48;1.75;;;0.70;;
71715;SDS011;59568;52.128;5.434;2022-07-23T14:01:15;1.30;;;0.70;;
71715;SDS011;59568;52.128;5.434;2022-07-23T14:03:43;1.42;;;0.70;;
71715;SDS011;59568;52.128;5.434;2022-07-23T14:06:10;2.47;;;1.10;;
71715;SDS011;59568;52.128;5.434;2022-07-23T14:08:42;1.92;;;0.60;;
71715;SDS011;59568;52.128;5.434;2022-07-23T14:11:13;3.42;;;0.70;;
71715;SDS011;59568;52.128;5.434;2022-07-23T14:13:40;2.30;;;1.00;;
71715;SDS011;59568;52.128;5.434;2022-07-23T14:16:07;2.63;;;0.90;;
71715;SDS011;59568;52.128;5.434;2022-07-23T14:18:34;2.20;;;0.90;;
71715;SDS011;59568;52.128;5.434;2022-07-23T14:21:01;1.95;;;1.00;;
71715;SDS011;59568;52.128;5.434;2022-07-23T14:23:29;2.70;;;0.70;;
71715;SDS011;59568;52.128;5.434;2022-07-23T14:25:56;3.10;;;0.80;;
71715;SDS011;59568;52.128;5.434;2022-07-23T14:28:23;1.88;;;1.02;;
71715;SDS011;59568;52.128;5.434;2022-07-23T14:30:50;2.73;;;1.27;;
71715;SDS011;59568;52.128;5.434;2022-07-23T14:33:17;1.88;;;0.75;;
71715;SDS011;59568;52.128;5.434;2022-07-23T14:35:44;1.40;;;0.70;;
71715;SDS011;59568;52.128;5.434;2022-07-23T14:38:11;2.25;;;0.77;;
71715;SDS011;59568;52.128;5.434;2022-07-23T14:40:39;1.90;;;0.98;;
71715;SDS011;59568;52.128;5.434;2022-07-23T14:43:06;2.73;;;1.00;;
71715;SDS011;59568;52.128;5.434;2022-07-23T14:45:36;1.80;;;0.70;;
71715;SDS011;59568;52.128;5.434;2022-07-23T14:48:02;1.92;;;0.98;;
71715;SDS011;59568;52.128;5.434;2022-07-23T14:50:29;2.40;;;0.63;;
71715;SDS011;59568;52.128;5.434;2022-07-23T14:52:56;2.55;;;1.00;;
71715;SDS011;59568;52.128;5.434;2022-07-23T14:55:23;3.27;;;1.27;;
71715;SDS011;59568;52.128;5.434;2022-07-23T14:57:50;2.83;;;0.95;;
71715;SDS011;59568;52.128;5.434;2022-07-23T15:00:18;1.88;;;0.82;;
71715;SDS011;59568;52.128;5.434;2022-07-23T15:02:49;1.88;;;0.90;;
71715;SDS011;59568;52.128;5.434;2022-07-23T15:05:20;1.50;;;0.90;;
71715;SDS011;59568;52.128;5.434;2022-07-23T15:07:48;2.00;;;0.90;;
71715;SDS011;59568;52.128;5.434;2022-07-23T15:10:15;2.03;;;1.00;;
71715;SDS011;59568;52.128;5.434;2022-07-23T15:12:47;1.70;;;0.70;;
71715;SDS011;59568;52.128;5.434;2022-07-23T15:15:14;2.80;;;1.10;;
71715;SDS011;59568;52.128;5.434;2022-07-23T15:17:41;1.73;;;0.95;;
71715;SDS011;59568;52.128;5.434;2022-07-23T15:20:08;1.83;;;1.17;;
71715;SDS011;59568;52.128;5.434;2022-07-23T15:22:36;1.58;;;1.00;;
71715;SDS011;59568;52.128;5.434;2022-07-23T15:25:03;2.55;;;0.98;;
71715;SDS011;59568;52.128;5.434;2022-07-23T15:27:30;2.03;;;1.00;;
71715;SDS011;59568;52.128;5.434;2022-07-23T15:29:58;2.13;;;0.80;;
71715;SDS011;59568;52.128;5.434;2022-07-23T15:32:25;1.33;;;0.73;;
71715;SDS011;59568;52.128;5.434;2022-07-23T15:34:54;1.70;;;0.73;;
71715;SDS011;59568;52.128;5.434;2022-07-23T15:37:22;2.35;;;0.80;;
71715;SDS011;59568;52.128;5.434;2022-07-23T15:39:52;1.65;;;0.80;;
71715;SDS011;59568;52.128;5.434;2022-07-23T15:42:19;1.90;;;0.90;;
71715;SDS011;59568;52.128;5.434;2022-07-23T15:44:46;2.23;;;1.00;;
71715;SDS011;59568;52.128;5.434;2022-07-23T15:47:14;3.08;;;0.75;;
71715;SDS011;59568;52.128;5.434;2022-07-23T15:49:42;1.90;;;1.50;;